sensor_id;sensor_type;location;lat;lon;timestamp;pressure;altitude;pressure_sealevel;temperature;humidity
15382;BME280;7789;51.364;12.358;2023-02-19T00:02:34;100257.00;;;11.23;100.00
15382;BME280;7789;51.364;12.358;2023-02-19T00:07:37;100254.25;;;11.25;100.00
15382;BME280;7789;51.364;12.358;2023-02-19T00:12:41;100241.88;;;11.27;100.00
15382;BME280;7789;51.364;12.358;2023-02-19T00:17:45;100248.75;;;11.28;100.00
15382;BME280;7789;51.364;12.358;2023-02-19T00:22:48;100243.53;;;11.28;100.00
15382;BME280;7789;51.364;12.358;2023-02-19T00:27:52;100251.91;;;11.31;100.00
15382;BME280;7789;51.364;12.358;2023-02-19T00:32:56;100243.38;;;11.29;100.00
15382;BME280;7789;51.364;12.358;2023-02-19T00:38:00;100235.28;;;11.32;100.00
15382;BME280;7789;51.364;12.358;2023-02-19T00:43:05;100232.38;;;11.35;100.00
15382;BME280;7789;51.364;12.358;2023-02-19T00:48:08;100221.75;;;11.37;100.00
15382;BME280;7789;51.364;12.358;2023-02-19T00:53:11;100217.66;;;11.34;100.00
15382;BME280;7789;51.364;12.358;2023-02-19T00:58:15;100226.84;;;11.29;100.00
15382;BME280;7789;51.364;12.358;2023-02-19T01:03:19;100223.41;;;11.28;100.00
15382;BME280;7789;51.364;12.358;2023-02-19T01:08:30;100217.47;;;11.26;100.00
15382;BME280;7789;51.364;12.358;2023-02-19T01:13:36;100222.00;;;11.24;100.00
15382;BME280;7789;51.364;12.358;2023-02-19T01:18:39;100218.59;;;11.24;100.00
15382;BME280;7789;51.364;12.358;2023-02-19T01:23:43;100207.00;;;11.26;100.00
15382;BME280;7789;51.364;12.358;2023-02-19T01:28:49;100198.34;;;11.26;100.00
15382;BME280;7789;51.364;12.358;2023-02-19T01:33:54;100173.84;;;11.27;100.00
15382;BME280;7789;51.364;12.358;2023-02-19T01:38:58;100168.03;;;11.23;100.00
15382;BME280;7789;51.364;12.358;2023-02-19T01:44:07;100161.69;;;11.16;100.00
15382;BME280;7789;51.364;12.358;2023-02-19T01:49:15;100154.09;;;11.13;100.00
15382;BME280;7789;51.364;12.358;2023-02-19T01:54:21;100127.78;;;11.05;100.00
15382;BME280;7789;51.364;12.358;2023-02-19T01:59:28;100133.56;;;11.00;100.00
15382;BME280;7789;51.364;12.358;2023-02-19T02:04:33;100111.78;;;10.99;100.00
15382;BME280;7789;51.364;12.358;2023-02-19T02:09:37;100102.97;;;11.00;100.00
15382;BME280;7789;51.364;12.358;2023-02-19T02:15:14;100096.09;;;10.99;100.00
15382;BME280;7789;51.364;12.358;2023-02-19T02:20:31;100074.91;;;11.02;100.00
15382;BME280;7789;51.364;12.358;2023-02-19T02:25:59;100070.50;;;11.02;100.00
15382;BME280;7789;51.364;12.358;2023-02-19T02:31:13;100060.19;;;11.01;100.00
15382;BME280;7789;51.364;12.358;2023-02-19T02:36:23;100044.75;;;10.98;100.00
15382;BME280;7789;51.364;12.358;2023-02-19T02:41:31;100044.06;;;10.96;100.00
15382;BME280;7789;51.364;12.358;2023-02-19T02:46:39;100036.34;;;10.95;100.00
15382;BME280;7789;51.364;12.358;2023-02-19T02:51:46;100044.63;;;10.90;100.00
15382;BME280;7789;51.364;12.358;2023-02-19T02:56:51;100048.75;;;10.93;100.00
15382;BME280;7789;51.364;12.358;2023-02-19T03:02:00;100031.56;;;10.90;100.00
15382;BME280;7789;51.364;12.358;2023-02-19T03:07:15;100019.84;;;10.85;100.00
15382;BME280;7789;51.364;12.358;2023-02-19T03:12:19;100000.56;;;10.86;100.00
15382;BME280;7789;51.364;12.358;2023-02-19T03:17:46;99993.41;;;10.88;100.00
15382;BME280;7789;51.364;12.358;2023-02-19T03:23:10;99995.63;;;10.83;100.00
15382;BME280;7789;51.364;12.358;2023-02-19T03:28:15;100001.66;;;10.83;100.00
15382;BME280;7789;51.364;12.358;2023-02-19T03:33:24;99998.34;;;10.81;100.00
15382;BME280;7789;51.364;12.358;2023-02-19T03:38:36;99995.75;;;10.81;100.00
15382;BME280;7789;51.364;12.358;2023-02-19T03:43:46;99993.97;;;10.82;100.00
15382;BME280;7789;51.364;12.358;2023-02-19T03:48:57;99973.97;;;10.81;100.00
15382;BME280;7789;51.364;12.358;2023-02-19T03:54:11;99976.47;;;10.82;100.00
15382;BME280;7789;51.364;12.358;2023-02-19T03:59:17;99972.09;;;10.83;100.00
15382;BME280;7789;51.364;12.358;2023-02-19T04:04:26;99982.94;;;10.88;100.00
15382;BME280;7789;51.364;12.358;2023-02-19T04:09:35;99963.00;;;10.87;100.00
15382;BME280;7789;51.364;12.358;2023-02-19T04:14:42;99973.88;;;10.92;100.00
15382;BME280;7789;51.364;12.358;2023-02-19T04:19:49;99990.25;;;10.94;100.00
15382;BME280;7789;51.364;12.358;2023-02-19T04:24:53;99995.47;;;10.94;100.00
15382;BME280;7789;51.364;12.358;2023-02-19T04:29:57;100009.38;;;10.94;100.00
15382;BME280;7789;51.364;12.358;2023-02-19T04:35:01;100019.16;;;10.92;100.00
15382;BME280;7789;51.364;12.358;2023-02-19T04:40:05;100025.34;;;10.91;100.00
15382;BME280;7789;51.364;12.358;2023-02-19T04:45:08;100019.41;;;10.89;100.00
15382;BME280;7789;51.364;12.358;2023-02-19T04:50:13;100016.78;;;10.89;100.00
15382;BME280;7789;51.364;12.358;2023-02-19T04:55:17;100016.25;;;10.86;100.00
15382;BME280;7789;51.364;12.358;2023-02-19T05:00:20;100011.44;;;10.81;100.00
15382;BME280;7789;51.364;12.358;2023-02-19T05:05:25;100014.88;;;10.82;100.00
15382;BME280;7789;51.364;12.358;2023-02-19T05:10:28;100014.44;;;10.77;100.00
15382;BME280;7789;51.364;12.358;2023-02-19T05:15:31;100016.09;;;10.78;100.00
15382;BME280;7789;51.364;12.358;2023-02-19T05:20:36;100017.63;;;10.80;100.00
15382;BME280;7789;51.364;12.358;2023-02-19T05:25:40;100022.84;;;10.80;100.00
15382;BME280;7789;51.364;12.358;2023-02-19T05:30:44;100021.03;;;10.81;100.00
15382;BME280;7789;51.364;12.358;2023-02-19T05:35:51;100014.88;;;10.82;100.00
15382;BME280;7789;51.364;12.358;2023-02-19T05:40:55;100016.38;;;10.84;100.00
15382;BME280;7789;51.364;12.358;2023-02-19T05:45:58;100015.56;;;10.84;100.00
15382;BME280;7789;51.364;12.358;2023-02-19T05:51:04;100028.66;;;10.84;100.00
15382;BME280;7789;51.364;12.358;2023-02-19T05:56:23;100030.28;;;10.85;100.00
15382;BME280;7789;51.364;12.358;2023-02-19T06:01:29;100040.88;;;10.83;100.00
15382;BME280;7789;51.364;12.358;2023-02-19T06:06:33;100037.19;;;10.86;100.00
15382;BME280;7789;51.364;12.358;2023-02-19T06:11:38;100051.91;;;10.87;100.00
15382;BME280;7789;51.364;12.358;2023-02-19T06:16:42;100059.59;;;10.88;100.00
15382;BME280;7789;51.364;12.358;2023-02-19T06:21:48;100064.69;;;10.90;100.00
15382;BME280;7789;51.364;12.358;2023-02-19T06:26:52;100064.81;;;10.88;100.00
15382;BME280;7789;51.364;12.358;2023-02-19T06:31:55;100094.44;;;10.89;100.00
15382;BME280;7789;51.364;12.358;2023-02-19T06:37:00;100094.69;;;10.86;100.00
15382;BME280;7789;51.364;12.358;2023-02-19T06:42:03;100120.84;;;10.86;100.00
15382;BME280;7789;51.364;12.358;2023-02-19T06:47:06;100150.75;;;10.63;100.00
15382;BME280;7789;51.364;12.358;2023-02-19T06:52:11;100168.84;;;10.25;100.00
15382;BME280;7789;51.364;12.358;2023-02-19T06:57:14;100166.25;;;10.04;100.00
15382;BME280;7789;51.364;12.358;2023-02-19T07:02:17;100191.69;;;9.91;100.00
15382;BME280;7789;51.364;12.358;2023-02-19T07:07:22;100207.03;;;9.74;100.00
15382;BME280;7789;51.364;12.358;2023-02-19T07:12:25;100220.16;;;9.52;100.00
15382;BME280;7789;51.364;12.358;2023-02-19T07:17:28;100232.75;;;9.47;100.00
15382;BME280;7789;51.364;12.358;2023-02-19T07:22:36;100240.03;;;9.21;100.00
15382;BME280;7789;51.364;12.358;2023-02-19T07:27:39;100267.75;;;9.12;100.00
15382;BME280;7789;51.364;12.358;2023-02-19T07:32:42;100281.50;;;8.92;100.00
15382;BME280;7789;51.364;12.358;2023-02-19T07:37:47;100291.66;;;8.73;100.00
15382;BME280;7789;51.364;12.358;2023-02-19T07:42:51;100327.03;;;8.53;100.00
15382;BME280;7789;51.364;12.358;2023-02-19T07:47:54;100347.31;;;8.37;100.00
15382;BME280;7789;51.364;12.358;2023-02-19T07:52:59;100352.38;;;8.28;100.00
15382;BME280;7789;51.364;12.358;2023-02-19T07:58:02;100359.50;;;8.13;100.00
15382;BME280;7789;51.364;12.358;2023-02-19T08:03:07;100386.88;;;8.06;100.00
15382;BME280;7789;51.364;12.358;2023-02-19T08:08:13;100396.31;;;7.96;100.00
15382;BME280;7789;51.364;12.358;2023-02-19T08:13:16;100414.13;;;7.90;100.00
15382;BME280;7789;51.364;12.358;2023-02-19T08:18:28;100417.66;;;7.89;100.00
15382;BME280;7789;51.364;12.358;2023-02-19T08:23:36;100434.84;;;7.79;100.00
15382;BME280;7789;51.364;12.358;2023-02-19T08:28:41;100449.00;;;7.75;100.00
15382;BME280;7789;51.364;12.358;2023-02-19T08:33:53;100486.16;;;7.64;100.00
15382;BME280;7789;51.364;12.358;2023-02-19T08:39:00;100496.03;;;7.47;100.00
15382;BME280;7789;51.364;12.358;2023-02-19T08:44:03;100509.44;;;7.41;100.00
15382;BME280;7789;51.364;12.358;2023-02-19T08:49:10;100501.53;;;7.30;100.00
15382;BME280;7789;51.364;12.358;2023-02-19T08:54:15;100532.31;;;7.24;100.00
15382;BME280;7789;51.364;12.358;2023-02-19T08:59:19;100547.16;;;7.22;100.00
15382;BME280;7789;51.364;12.358;2023-02-19T09:04:22;100556.44;;;7.26;100.00
15382;BME280;7789;51.364;12.358;2023-02-19T09:09:27;100567.28;;;7.32;100.00
15382;BME280;7789;51.364;12.358;2023-02-19T09:14:31;100578.22;;;7.37;100.00
15382;BME280;7789;51.364;12.358;2023-02-19T09:19:38;100595.69;;;7.47;100.00
15382;BME280;7789;51.364;12.358;2023-02-19T09:24:47;100604.16;;;7.51;100.00
15382;BME280;7789;51.364;12.358;2023-02-19T09:29:51;100605.69;;;7.53;100.00
15382;BME280;7789;51.364;12.358;2023-02-19T09:35:00;100608.34;;;7.66;100.00
15382;BME280;7789;51.364;12.358;2023-02-19T09:40:05;100624.56;;;7.69;100.00
15382;BME280;7789;51.364;12.358;2023-02-19T09:45:18;100629.06;;;7.80;100.00
15382;BME280;7789;51.364;12.358;2023-02-19T09:50:29;100644.38;;;7.97;100.00
15382;BME280;7789;51.364;12.358;2023-02-19T09:55:38;100630.47;;;8.10;100.00
15382;BME280;7789;51.364;12.358;2023-02-19T10:00:48;100650.38;;;8.49;100.00
15382;BME280;7789;51.364;12.358;2023-02-19T10:05:52;100666.19;;;8.58;100.00
15382;BME280;7789;51.364;12.358;2023-02-19T10:10:59;100679.94;;;8.85;100.00
15382;BME280;7789;51.364;12.358;2023-02-19T10:16:04;100687.84;;;8.96;100.00
15382;BME280;7789;51.364;12.358;2023-02-19T10:21:15;100697.31;;;9.10;100.00
15382;BME280;7789;51.364;12.358;2023-02-19T10:26:22;100705.34;;;9.42;100.00
15382;BME280;7789;51.364;12.358;2023-02-19T10:31:30;100700.13;;;9.42;100.00
15382;BME280;7789;51.364;12.358;2023-02-19T10:36:36;100720.09;;;9.31;100.00
15382;BME280;7789;51.364;12.358;2023-02-19T10:41:45;100730.94;;;9.25;100.00
15382;BME280;7789;51.364;12.358;2023-02-19T10:46:50;100733.78;;;9.22;100.00
15382;BME280;7789;51.364;12.358;2023-02-19T10:52:00;100743.81;;;9.15;100.00
15382;BME280;7789;51.364;12.358;2023-02-19T10:57:27;100757.13;;;9.36;100.00
15382;BME280;7789;51.364;12.358;2023-02-19T11:02:36;100763.16;;;9.49;100.00
15382;BME280;7789;51.364;12.358;2023-02-19T11:07:43;100776.47;;;9.57;100.00
15382;BME280;7789;51.364;12.358;2023-02-19T11:12:50;100783.19;;;9.48;100.00
15382;BME280;7789;51.364;12.358;2023-02-19T11:17:57;100781.81;;;9.55;100.00
15382;BME280;7789;51.364;12.358;2023-02-19T11:23:11;100787.38;;;9.74;100.00
15382;BME280;7789;51.364;12.358;2023-02-19T11:28:28;100792.88;;;9.82;99.68
15382;BME280;7789;51.364;12.358;2023-02-19T11:33:32;100802.22;;;9.97;98.77
15382;BME280;7789;51.364;12.358;2023-02-19T11:38:35;100815.16;;;10.11;97.18
15382;BME280;7789;51.364;12.358;2023-02-19T11:44:00;100813.19;;;10.26;96.57
15382;BME280;7789;51.364;12.358;2023-02-19T11:49:19;100832.16;;;10.40;94.23
15382;BME280;7789;51.364;12.358;2023-02-19T11:54:39;100826.31;;;10.37;93.17
15382;BME280;7789;51.364;12.358;2023-02-19T11:59:55;100817.59;;;10.25;93.45
15382;BME280;7789;51.364;12.358;2023-02-19T12:05:12;100816.75;;;10.25;92.21
15382;BME280;7789;51.364;12.358;2023-02-19T12:10:25;100802.25;;;10.21;92.74
15382;BME280;7789;51.364;12.358;2023-02-19T12:16:05;100818.00;;;10.08;90.90
15382;BME280;7789;51.364;12.358;2023-02-19T12:21:25;100826.06;;;10.05;91.09
15382;BME280;7789;51.364;12.358;2023-02-19T12:26:40;100825.44;;;10.02;90.97
15382;BME280;7789;51.364;12.358;2023-02-19T12:37:29;100836.31;;;10.19;88.89
15382;BME280;7789;51.364;12.358;2023-02-19T12:42:46;100834.50;;;9.96;86.72
15382;BME280;7789;51.364;12.358;2023-02-19T12:47:57;100846.72;;;10.08;86.49
15382;BME280;7789;51.364;12.358;2023-02-19T12:53:07;100839.09;;;10.29;85.77
15382;BME280;7789;51.364;12.358;2023-02-19T12:58:25;100849.69;;;10.38;84.95
15382;BME280;7789;51.364;12.358;2023-02-19T13:03:34;100864.00;;;10.45;84.90
15382;BME280;7789;51.364;12.358;2023-02-19T13:08:44;100862.06;;;10.36;84.90
15382;BME280;7789;51.364;12.358;2023-02-19T13:14:14;100849.69;;;10.27;84.08
15382;BME280;7789;51.364;12.358;2023-02-19T13:19:21;100857.19;;;10.32;83.52
15382;BME280;7789;51.364;12.358;2023-02-19T13:24:26;100864.97;;;10.21;82.21
15382;BME280;7789;51.364;12.358;2023-02-19T13:29:39;100867.09;;;10.03;80.18
15382;BME280;7789;51.364;12.358;2023-02-19T13:34:58;100866.28;;;10.03;81.78
15382;BME280;7789;51.364;12.358;2023-02-19T13:40:18;100879.44;;;9.89;80.53
15382;BME280;7789;51.364;12.358;2023-02-19T13:45:30;100879.16;;;9.81;80.19
15382;BME280;7789;51.364;12.358;2023-02-19T13:50:36;100887.34;;;9.64;80.42
15382;BME280;7789;51.364;12.358;2023-02-19T13:55:50;100900.81;;;9.45;80.27
15382;BME280;7789;51.364;12.358;2023-02-19T14:00:55;100923.25;;;9.35;79.95
15382;BME280;7789;51.364;12.358;2023-02-19T14:06:02;100927.13;;;9.30;80.45
15382;BME280;7789;51.364;12.358;2023-02-19T14:11:07;100929.19;;;9.25;81.24
15382;BME280;7789;51.364;12.358;2023-02-19T14:21:56;100921.19;;;9.40;80.97
15382;BME280;7789;51.364;12.358;2023-02-19T14:26:59;100919.50;;;9.39;80.83
15382;BME280;7789;51.364;12.358;2023-02-19T14:32:04;100918.97;;;9.34;80.61
15382;BME280;7789;51.364;12.358;2023-02-19T14:37:14;100926.63;;;9.37;81.14
15382;BME280;7789;51.364;12.358;2023-02-19T14:42:22;100931.63;;;9.40;81.25
15382;BME280;7789;51.364;12.358;2023-02-19T14:47:29;100926.06;;;9.32;80.80
15382;BME280;7789;51.364;12.358;2023-02-19T14:52:39;100928.38;;;9.37;80.53
15382;BME280;7789;51.364;12.358;2023-02-19T14:57:48;100922.34;;;9.36;81.43
15382;BME280;7789;51.364;12.358;2023-02-19T15:02:54;100927.75;;;9.21;80.56
15382;BME280;7789;51.364;12.358;2023-02-19T15:08:02;100922.31;;;9.12;79.82
15382;BME280;7789;51.364;12.358;2023-02-19T15:13:10;100926.38;;;9.03;80.90
15382;BME280;7789;51.364;12.358;2023-02-19T15:18:20;100936.66;;;8.92;80.86
15382;BME280;7789;51.364;12.358;2023-02-19T15:23:26;100937.38;;;8.82;82.08
15382;BME280;7789;51.364;12.358;2023-02-19T15:28:32;100945.25;;;8.68;81.30
15382;BME280;7789;51.364;12.358;2023-02-19T15:33:36;100937.31;;;8.57;81.07
15382;BME280;7789;51.364;12.358;2023-02-19T15:38:40;100948.41;;;8.46;81.08
15382;BME280;7789;51.364;12.358;2023-02-19T15:43:47;100949.91;;;8.36;81.70
15382;BME280;7789;51.364;12.358;2023-02-19T15:49:05;100953.94;;;8.28;83.33
15382;BME280;7789;51.364;12.358;2023-02-19T15:54:16;100955.16;;;8.22;84.06
15382;BME280;7789;51.364;12.358;2023-02-19T15:59:32;100946.31;;;8.11;84.48
15382;BME280;7789;51.364;12.358;2023-02-19T16:04:39;100966.13;;;7.99;85.02
15382;BME280;7789;51.364;12.358;2023-02-19T16:09:48;100971.91;;;7.90;85.52
15382;BME280;7789;51.364;12.358;2023-02-19T16:14:51;100970.59;;;7.83;86.21
15382;BME280;7789;51.364;12.358;2023-02-19T16:20:01;100976.34;;;7.74;85.85
15382;BME280;7789;51.364;12.358;2023-02-19T16:25:25;100988.19;;;7.66;88.68
15382;BME280;7789;51.364;12.358;2023-02-19T16:30:33;100986.38;;;7.52;88.39
15382;BME280;7789;51.364;12.358;2023-02-19T16:35:38;101005.22;;;7.42;89.08
15382;BME280;7789;51.364;12.358;2023-02-19T16:41:05;101016.06;;;7.34;90.72
15382;BME280;7789;51.364;12.358;2023-02-19T16:46:13;101017.69;;;7.22;89.86
15382;BME280;7789;51.364;12.358;2023-02-19T16:51:24;101033.00;;;7.12;90.74
15382;BME280;7789;51.364;12.358;2023-02-19T16:56:33;101040.47;;;7.03;92.00
15382;BME280;7789;51.364;12.358;2023-02-19T17:01:37;101041.00;;;6.94;92.15
15382;BME280;7789;51.364;12.358;2023-02-19T17:06:46;101043.19;;;6.86;93.16
15382;BME280;7789;51.364;12.358;2023-02-19T17:11:52;101047.13;;;6.77;92.50
15382;BME280;7789;51.364;12.358;2023-02-19T17:16:55;101060.66;;;6.68;93.79
15382;BME280;7789;51.364;12.358;2023-02-19T17:22:03;101063.72;;;6.59;93.57
15382;BME280;7789;51.364;12.358;2023-02-19T17:27:09;101073.59;;;6.53;94.57
15382;BME280;7789;51.364;12.358;2023-02-19T17:32:14;101073.09;;;6.46;94.09
15382;BME280;7789;51.364;12.358;2023-02-19T17:37:18;101071.75;;;6.39;94.24
15382;BME280;7789;51.364;12.358;2023-02-19T17:42:26;101067.66;;;6.35;95.00
15382;BME280;7789;51.364;12.358;2023-02-19T17:47:29;101092.25;;;6.28;95.07
15382;BME280;7789;51.364;12.358;2023-02-19T17:52:32;101099.38;;;6.25;94.64
15382;BME280;7789;51.364;12.358;2023-02-19T17:57:37;101093.50;;;6.21;95.21
15382;BME280;7789;51.364;12.358;2023-02-19T18:02:40;101092.00;;;6.17;96.18
15382;BME280;7789;51.364;12.358;2023-02-19T18:07:46;101101.84;;;6.11;97.51
15382;BME280;7789;51.364;12.358;2023-02-19T18:12:51;101098.56;;;6.07;97.90
15382;BME280;7789;51.364;12.358;2023-02-19T18:17:55;101109.28;;;6.01;97.88
15382;BME280;7789;51.364;12.358;2023-02-19T18:23:01;101104.25;;;5.98;98.73
15382;BME280;7789;51.364;12.358;2023-02-19T18:28:06;101119.28;;;5.92;98.22
15382;BME280;7789;51.364;12.358;2023-02-19T18:33:19;101125.44;;;5.89;98.48
15382;BME280;7789;51.364;12.358;2023-02-19T18:38:23;101129.19;;;5.84;98.69
15382;BME280;7789;51.364;12.358;2023-02-19T18:43:34;101124.16;;;5.81;99.18
15382;BME280;7789;51.364;12.358;2023-02-19T18:48:38;101127.81;;;5.77;99.03
15382;BME280;7789;51.364;12.358;2023-02-19T18:53:42;101115.00;;;5.74;99.64
15382;BME280;7789;51.364;12.358;2023-02-19T18:58:46;101127.31;;;5.69;100.00
15382;BME280;7789;51.364;12.358;2023-02-19T19:03:51;101131.75;;;5.67;100.00
15382;BME280;7789;51.364;12.358;2023-02-19T19:08:58;101141.53;;;5.62;100.00
15382;BME280;7789;51.364;12.358;2023-02-19T19:14:03;101122.78;;;5.57;100.00
15382;BME280;7789;51.364;12.358;2023-02-19T19:19:10;101125.56;;;5.52;100.00
15382;BME280;7789;51.364;12.358;2023-02-19T19:24:14;101137.84;;;5.49;100.00
15382;BME280;7789;51.364;12.358;2023-02-19T19:29:19;101142.47;;;5.42;100.00
15382;BME280;7789;51.364;12.358;2023-02-19T19:34:23;101135.94;;;5.36;100.00
15382;BME280;7789;51.364;12.358;2023-02-19T19:39:33;101132.78;;;5.29;100.00
15382;BME280;7789;51.364;12.358;2023-02-19T19:44:38;101130.66;;;5.20;100.00
15382;BME280;7789;51.364;12.358;2023-02-19T19:49:44;101130.94;;;5.14;100.00
15382;BME280;7789;51.364;12.358;2023-02-19T19:54:48;101135.50;;;5.09;100.00
15382;BME280;7789;51.364;12.358;2023-02-19T19:59:56;101118.34;;;5.07;100.00
15382;BME280;7789;51.364;12.358;2023-02-19T20:04:59;101119.09;;;5.09;100.00
15382;BME280;7789;51.364;12.358;2023-02-19T20:10:05;101123.38;;;5.10;100.00
15382;BME280;7789;51.364;12.358;2023-02-19T20:15:11;101132.84;;;5.11;100.00
15382;BME280;7789;51.364;12.358;2023-02-19T20:20:16;101126.25;;;5.22;100.00
15382;BME280;7789;51.364;12.358;2023-02-19T20:25:20;101131.13;;;5.28;100.00
15382;BME280;7789;51.364;12.358;2023-02-19T20:30:30;101125.38;;;5.22;100.00
15382;BME280;7789;51.364;12.358;2023-02-19T20:35:33;101121.16;;;5.19;100.00
15382;BME280;7789;51.364;12.358;2023-02-19T20:40:43;101117.81;;;5.17;100.00
15382;BME280;7789;51.364;12.358;2023-02-19T20:45:48;101123.25;;;5.13;100.00
15382;BME280;7789;51.364;12.358;2023-02-19T20:50:54;101125.53;;;5.19;100.00
15382;BME280;7789;51.364;12.358;2023-02-19T20:56:00;101140.34;;;5.34;100.00
15382;BME280;7789;51.364;12.358;2023-02-19T21:01:05;101147.38;;;5.32;100.00
15382;BME280;7789;51.364;12.358;2023-02-19T21:06:09;101155.78;;;5.18;100.00
15382;BME280;7789;51.364;12.358;2023-02-19T21:11:13;101152.66;;;5.12;100.00
15382;BME280;7789;51.364;12.358;2023-02-19T21:16:18;101136.47;;;5.07;100.00
15382;BME280;7789;51.364;12.358;2023-02-19T21:21:22;101139.16;;;5.05;100.00
15382;BME280;7789;51.364;12.358;2023-02-19T21:26:33;101146.81;;;5.07;100.00
15382;BME280;7789;51.364;12.358;2023-02-19T21:31:40;101149.28;;;5.10;100.00
15382;BME280;7789;51.364;12.358;2023-02-19T21:36:43;101147.03;;;5.21;100.00
15382;BME280;7789;51.364;12.358;2023-02-19T21:41:48;101157.63;;;5.33;100.00
15382;BME280;7789;51.364;12.358;2023-02-19T21:46:53;101140.59;;;5.46;100.00
15382;BME280;7789;51.364;12.358;2023-02-19T21:51:56;101153.94;;;5.55;100.00
15382;BME280;7789;51.364;12.358;2023-02-19T21:57:01;101138.88;;;5.63;100.00
15382;BME280;7789;51.364;12.358;2023-02-19T22:02:07;101135.97;;;5.69;100.00
15382;BME280;7789;51.364;12.358;2023-02-19T22:07:11;101136.41;;;5.77;100.00
15382;BME280;7789;51.364;12.358;2023-02-19T22:12:14;101140.59;;;5.81;100.00
15382;BME280;7789;51.364;12.358;2023-02-19T22:17:19;101133.47;;;5.85;100.00
15382;BME280;7789;51.364;12.358;2023-02-19T22:22:23;101119.28;;;5.92;100.00
15382;BME280;7789;51.364;12.358;2023-02-19T22:27:27;101108.75;;;5.95;100.00
15382;BME280;7789;51.364;12.358;2023-02-19T22:32:32;101097.88;;;6.04;100.00
15382;BME280;7789;51.364;12.358;2023-02-19T22:37:35;101086.19;;;6.12;100.00
15382;BME280;7789;51.364;12.358;2023-02-19T22:42:39;101098.63;;;6.23;100.00
15382;BME280;7789;51.364;12.358;2023-02-19T22:47:43;101104.25;;;6.31;100.00
15382;BME280;7789;51.364;12.358;2023-02-19T22:52:48;101105.69;;;6.36;100.00
15382;BME280;7789;51.364;12.358;2023-02-19T22:57:55;101109.78;;;6.40;100.00
15382;BME280;7789;51.364;12.358;2023-02-19T23:02:59;101106.09;;;6.44;100.00
15382;BME280;7789;51.364;12.358;2023-02-19T23:08:03;101111.81;;;6.51;100.00
15382;BME280;7789;51.364;12.358;2023-02-19T23:13:06;101105.53;;;6.55;100.00
15382;BME280;7789;51.364;12.358;2023-02-19T23:18:11;101106.88;;;6.62;100.00
15382;BME280;7789;51.364;12.358;2023-02-19T23:23:14;101099.69;;;6.67;100.00
15382;BME280;7789;51.364;12.358;2023-02-19T23:28:18;101100.19;;;6.73;100.00
15382;BME280;7789;51.364;12.358;2023-02-19T23:33:22;101092.31;;;6.75;100.00
15382;BME280;7789;51.364;12.358;2023-02-19T23:38:25;101082.69;;;6.77;100.00
15382;BME280;7789;51.364;12.358;2023-02-19T23:43:28;101085.84;;;6.82;100.00
15382;BME280;7789;51.364;12.358;2023-02-19T23:48:33;101091.72;;;6.85;100.00
15382;BME280;7789;51.364;12.358;2023-02-19T23:53:36;101072.63;;;6.86;100.00
15382;BME280;7789;51.364;12.358;2023-02-19T23:58:40;101056.19;;;6.86;100.00
